KLAN/LAN METAR and TAF weather

Enter ICAO airport designator
Station Type Date Time Source
KLAN METAR 2023/02/05 22:53 UTC NOAA

KLAN 052253Z 27009KT 10SM OVC018 03/M02 A2989 RMK AO2 SLP130 T00281017 $


Station Type Date Time Source
KLAN Decoded METAR 2023/02/05 22:53 UTC NOAA

CAPITAL CITY AIRPORT, MI, United States (KLAN) 42-47N 084-35W 264M
Feb 05, 2023 - 05:53 PM EST / 2023.02.05 2253 UTC
Wind: from the W (270 degrees) at 10 MPH (9 KT):0
Visibility: 10 mile(s):0
Sky conditions: overcast
Temperature: 37.0 F (2.8 C)
Dew Point: 28.9 F (-1.7 C)
Relative Humidity: 72%
Pressure (altimeter): 29.89 in. Hg (1012 hPa)
ob: KLAN 052253Z 27009KT 10SM OVC018 03/M02 A2989 RMK AO2 SLP130 T00281017
cycle: 23

Station Type Date Time Source
KLAN TAF 2023/02/05 23:06 UTC NOAA

TAF
AMD KLAN 052304Z 0523/0618 27010KT P6SM BKN015
TEMPO 0523/0601 6SM -SN
FM060700 32003KT P6SM SCT050

Example: see airport list